Time;durP1;ratioP1;P1;durP2;ratioP2;P2;SDS_P1;SDS_P2;PMS_P1;PMS_P2;Temp;Humidity;BMP_temperature;BMP_pressure;BME280_temperature;BME280_humidity;BME280_pressure;Samples;Min_cycle;Max_cycle;Signal;HPM_P1;HPM_P2
2022/09/13 00:00:51;;;;;;;8.65;6.97;;;11.10;78.10;;;;;;4959707;29;20389;-84
2022/09/13 00:03:18;;;;;;;9.93;6.82;;;11.10;78.10;;;;;;4957793;28;20031;-86
2022/09/13 00:05:44;;;;;;;8.50;6.70;;;11.10;77.90;;;;;;4957105;29;20050;-85
2022/09/13 00:08:11;;;;;;;9.40;6.93;;;11.10;77.80;;;;;;4958176;28;20481;-83
2022/09/13 00:10:39;;;;;;;9.10;7.28;;;11.10;77.90;;;;;;4955117;28;20473;-84
2022/09/13 00:13:07;;;;;;;10.00;7.15;;;11.10;77.80;;;;;;4957158;29;20037;-84
2022/09/13 00:15:34;;;;;;;10.48;7.65;;;11.10;77.90;;;;;;4960408;29;20090;-85
2022/09/13 00:17:59;;;;;;;8.60;7.00;;;11.10;78.00;;;;;;4966755;28;20035;-85
2022/09/13 00:20:25;;;;;;;10.15;7.30;;;11.10;78.10;;;;;;4959912;28;20054;-86
2022/09/13 00:22:51;;;;;;;10.52;7.50;;;11.00;78.10;;;;;;4957435;28;20039;-85
2022/09/13 00:25:17;;;;;;;10.13;7.43;;;11.00;78.20;;;;;;4955796;28;20433;-85
2022/09/13 00:27:44;;;;;;;10.35;7.80;;;10.90;78.30;;;;;;4957237;29;20034;-86
2022/09/13 00:30:11;;;;;;;10.18;7.88;;;10.80;78.50;;;;;;4960260;28;20023;-86
2022/09/13 00:32:37;;;;;;;10.82;7.93;;;10.80;78.70;;;;;;4960232;28;20027;-85
2022/09/13 00:35:05;;;;;;;12.02;7.30;;;10.80;78.80;;;;;;4956054;29;20039;-87
2022/09/13 00:37:33;;;;;;;10.88;6.93;;;10.80;78.80;;;;;;4956630;29;20020;-86
2022/09/13 00:39:59;;;;;;;15.05;8.05;;;10.80;78.80;;;;;;4964344;28;20035;-85
2022/09/13 00:42:27;;;;;;;10.05;7.22;;;10.80;79.00;;;;;;4958391;29;20082;-86
2022/09/13 00:44:56;;;;;;;10.68;8.43;;;10.70;79.10;;;;;;4957158;28;20027;-86
2022/09/13 00:47:36;;;;;;;8.77;7.30;;;10.70;79.10;;;;;;4957172;29;20039;-85
2022/09/13 00:50:19;;;;;;;9.60;7.82;;;10.70;79.40;;;;;;4958496;29;20019;-85
2022/09/13 00:52:55;;;;;;;12.43;7.55;;;10.70;79.50;;;;;;4952865;29;20470;-85
2022/09/13 00:55:52;;;;;;;11.35;7.78;;;10.70;79.30;;;;;;4956936;28;20464;-88
2022/09/13 00:58:32;;;;;;;9.60;7.18;;;10.60;79.50;;;;;;4956626;28;20562;-87
2022/09/13 01:00:59;;;;;;;9.82;7.97;;;10.60;79.70;;;;;;4957831;29;20035;-87
2022/09/13 01:03:28;;;;;;;10.48;7.85;;;10.60;79.70;;;;;;4969587;28;20058;-86
2022/09/13 01:06:12;;;;;;;12.10;8.10;;;10.50;79.90;;;;;;4969085;28;20054;-86
2022/09/13 01:08:40;;;;;;;10.63;8.73;;;10.50;80.10;;;;;;4967941;28;20020;-88
2022/09/13 01:11:26;;;;;;;9.68;7.75;;;10.50;80.10;;;;;;4975251;28;20166;-87
2022/09/13 01:13:53;;;;;;;9.77;7.97;;;10.50;80.20;;;;;;4973888;28;20082;-87
2022/09/13 01:16:19;;;;;;;10.63;7.88;;;10.50;80.20;;;;;;4973925;28;20051;-86
2022/09/13 01:18:45;;;;;;;11.23;8.88;;;10.50;80.20;;;;;;4972831;28;20103;-87
2022/09/13 01:21:35;;;;;;;11.70;9.25;;;10.40;80.30;;;;;;4959346;28;20114;-86
2022/09/13 01:24:28;;;;;;;9.82;8.75;;;10.40;80.40;;;;;;4954739;29;20457;-86
2022/09/13 01:27:35;;;;;;;12.23;7.50;;;10.40;80.50;;;;;;4971363;28;20141;-85
2022/09/13 01:30:06;;;;;;;;;;;10.30;80.50;;;;;;4953308;29;20027;-86
2022/09/13 01:32:55;;;;;;;8.68;7.75;;;10.30;80.30;;;;;;4980730;28;19906;-85
2022/09/13 01:35:32;;;;;;;9.55;8.50;;;10.20;80.80;;;;;;4972298;28;20023;-86
2022/09/13 01:38:32;;;;;;;10.13;7.60;;;10.20;81.00;;;;;;4947115;29;20030;-86
2022/09/13 01:40:59;;;;;;;13.88;7.88;;;10.20;81.20;;;;;;4974850;29;20035;-85
2022/09/13 01:43:32;;;;;;;12.27;7.85;;;10.20;81.10;;;;;;4966095;29;20106;-86
2022/09/13 01:46:18;;;;;;;10.75;7.82;;;10.30;81.30;;;;;;4963584;28;20117;-85
2022/09/13 01:48:58;;;;;;;12.00;8.07;;;10.30;81.20;;;;;;4962239;28;20047;-86
2022/09/13 01:51:30;;;;;;;9.27;7.75;;;10.30;81.10;;;;;;4961527;29;20035;-85
2022/09/13 01:54:18;;;;;;;9.60;7.28;;;10.30;81.60;;;;;;4974350;28;20069;-85
2022/09/13 01:56:56;;;;;;;10.00;7.90;;;10.30;81.10;;;;;;4969648;28;20024;-85
2022/09/13 01:59:46;;;;;;;11.73;8.50;;;10.30;80.90;;;;;;4958696;29;20521;-86
2022/09/13 02:02:50;;;;;;;15.48;9.90;;;10.40;80.90;;;;;;4967374;29;20039;-86
2022/09/13 02:05:37;;;;;;;11.90;8.07;;;10.40;80.90;;;;;;4953668;28;20449;-86
2022/09/13 02:08:14;;;;;;;14.07;9.30;;;10.40;80.90;;;;;;4955315;29;20507;-85
2022/09/13 02:10:55;;;;;;;10.27;7.97;;;10.30;80.80;;;;;;4955681;28;20023;-85
2022/09/13 02:13:28;;;;;;;10.73;9.40;;;10.30;80.80;;;;;;4955294;29;20020;-88
2022/09/13 02:15:59;;;;;;;12.77;8.77;;;10.30;81.00;;;;;;4955303;29;20031;-86
2022/09/13 02:18:37;;;;;;;11.98;8.40;;;10.20;81.10;;;;;;4958198;28;20484;-85
2022/09/13 02:21:13;;;;;;;12.52;9.13;;;10.20;81.30;;;;;;4952990;29;20401;-83
2022/09/13 02:23:47;;;;;;;13.43;9.23;;;10.10;81.40;;;;;;4954824;28;20042;-83
2022/09/13 02:26:14;;;;;;;12.55;9.38;;;10.00;81.70;;;;;;4955004;28;20027;-84
2022/09/13 02:28:49;;;;;;;10.93;8.32;;;10.00;82.00;;;;;;4955882;28;20089;-84
2022/09/13 02:31:22;;;;;;;12.02;9.63;;;9.90;82.10;;;;;;4960838;29;20485;-84
2022/09/13 02:34:02;;;;;;;10.63;9.25;;;9.80;82.20;;;;;;4958332;29;20027;-84
2022/09/13 02:36:33;;;;;;;13.05;9.35;;;9.90;82.60;;;;;;4955273;29;20019;-84
2022/09/13 02:39:03;;;;;;;12.55;8.70;;;9.80;82.70;;;;;;4955279;28;20027;-84
2022/09/13 02:41:37;;;;;;;11.93;8.48;;;9.70;82.80;;;;;;4954903;29;20030;-85
2022/09/13 02:44:18;;;;;;;11.07;8.85;;;9.70;82.90;;;;;;4955506;29;20027;-85
2022/09/13 02:46:50;;;;;;;12.18;9.93;;;9.80;83.00;;;;;;4955255;28;20114;-86
2022/09/13 02:49:37;;;;;;;13.10;9.52;;;9.70;83.10;;;;;;4977335;29;20027;-84
2022/09/13 02:52:21;;;;;;;9.90;8.30;;;9.70;83.20;;;;;;4971834;29;20410;-83
2022/09/13 02:55:01;;;;;;;21.15;9.52;;;9.70;83.30;;;;;;4954376;29;20023;-85
2022/09/13 02:57:41;;;;;;;11.38;9.32;;;9.60;83.40;;;;;;4955974;29;20034;-84
2022/09/13 03:00:08;;;;;;;11.68;9.35;;;9.60;83.40;;;;;;4966007;28;20015;-84
2022/09/13 03:02:35;;;;;;;13.75;9.20;;;9.60;83.40;;;;;;4969760;29;20038;-83
2022/09/13 03:05:01;;;;;;;12.57;8.53;;;9.70;83.50;;;;;;4971280;29;20066;-85
2022/09/13 03:07:27;;;;;;;13.30;9.52;;;9.70;83.40;;;;;;4955462;29;20690;-84
2022/09/13 03:09:57;;;;;;;11.43;9.32;;;9.70;83.40;;;;;;4952843;28;20388;-85
2022/09/13 03:12:33;;;;;;;12.95;9.80;;;9.80;83.30;;;;;;4945081;29;20027;-85
2022/09/13 03:15:11;;;;;;;13.00;10.23;;;9.80;83.00;;;;;;4954676;28;20042;-85
2022/09/13 03:17:43;;;;;;;11.65;8.95;;;9.80;83.10;;;;;;4960319;28;20485;-85
2022/09/13 03:20:34;;;;;;;13.35;9.07;;;9.80;83.10;;;;;;4957152;28;20116;-84
2022/09/13 03:23:37;;;;;;;16.58;11.63;;;9.80;83.20;;;;;;4963879;29;20035;-85
2022/09/13 03:26:51;;;;;;;16.38;11.45;;;9.90;83.30;;;;;;4965132;28;20048;-84
2022/09/13 03:29:30;;;;;;;12.18;9.85;;;9.90;83.20;;;;;;4976338;28;20041;-84
2022/09/13 03:32:18;;;;;;;12.88;10.07;;;10.00;83.00;;;;;;4956165;29;20136;-84
2022/09/13 03:34:58;;;;;;;19.73;11.70;;;10.00;82.80;;;;;;4952008;28;20046;-85
2022/09/13 03:37:32;;;;;;;11.65;9.65;;;10.00;82.60;;;;;;4949887;28;20036;-84
2022/09/13 03:40:11;;;;;;;14.18;11.30;;;10.10;82.60;;;;;;4951772;29;20044;-86
2022/09/13 03:42:47;;;;;;;12.57;9.43;;;10.10;82.50;;;;;;4952447;29;20139;-86
2022/09/13 03:45:15;;;;;;;17.27;11.95;;;10.20;82.40;;;;;;4952658;28;20035;-84
2022/09/13 03:47:44;;;;;;;15.95;9.52;;;10.30;82.10;;;;;;4951564;29;20054;-85
2022/09/13 03:50:17;;;;;;;11.55;9.95;;;10.40;82.00;;;;;;4952643;29;20033;-87
2022/09/13 03:52:44;;;;;;;11.38;8.77;;;10.50;81.60;;;;;;4953443;29;20050;-85
2022/09/13 03:55:10;;;;;;;14.55;9.88;;;10.50;80.80;;;;;;4953821;29;20046;-85
2022/09/13 03:57:36;;;;;;;18.23;10.57;;;10.40;81.20;;;;;;4954140;29;20039;-86
2022/09/13 04:00:03;;;;;;;14.57;9.80;;;10.50;81.20;;;;;;4949684;28;20413;-83
2022/09/13 04:02:28;;;;;;;11.57;9.93;;;10.50;80.70;;;;;;4960718;29;20062;-85
2022/09/13 04:04:55;;;;;;;11.18;9.07;;;10.50;81.10;;;;;;4956917;29;20126;-83
2022/09/13 04:07:23;;;;;;;15.57;9.48;;;10.60;81.20;;;;;;4965490;28;20024;-85
2022/09/13 04:09:49;;;;;;;17.98;8.02;;;10.80;80.60;;;;;;4970949;28;20042;-84
2022/09/13 04:12:16;;;;;;;17.25;9.40;;;11.00;80.20;;;;;;4962906;28;20019;-84
2022/09/13 04:14:43;;;;;;;11.93;8.43;;;11.10;79.10;;;;;;4958082;28;20166;-83
2022/09/13 04:17:09;;;;;;;11.20;9.70;;;11.30;78.10;;;;;;4957636;28;20027;-84
2022/09/13 04:19:35;;;;;;;11.50;9.13;;;11.50;77.30;;;;;;4949263;29;20034;-85
2022/09/13 04:22:01;;;;;;;14.10;10.07;;;11.60;76.40;;;;;;4957686;29;20027;-81
2022/09/13 04:24:29;;;;;;;13.27;9.00;;;11.60;76.30;;;;;;4958483;28;20035;-80
2022/09/13 04:26:56;;;;;;;14.13;10.18;;;11.60;76.50;;;;;;4958450;29;20371;-81
2022/09/13 04:29:23;;;;;;;18.20;12.60;;;11.50;75.70;;;;;;4945940;29;20019;-82
2022/09/13 04:31:52;;;;;;;15.23;13.05;;;11.30;77.00;;;;;;4957352;28;20067;-82
2022/09/13 04:34:18;;;;;;;13.10;9.80;;;11.20;77.70;;;;;;4957777;29;20126;-80
2022/09/13 04:36:46;;;;;;;16.63;10.82;;;11.20;77.20;;;;;;4956821;29;20027;-83
2022/09/13 04:39:14;;;;;;;11.85;10.48;;;11.20;77.40;;;;;;4957485;28;20482;-82
2022/09/13 04:41:42;;;;;;;12.77;9.93;;;11.30;77.00;;;;;;4956367;28;20035;-82
2022/09/13 04:44:08;;;;;;;12.35;10.45;;;11.20;77.00;;;;;;4956390;29;20031;-84
2022/09/13 04:46:34;;;;;;;13.68;10.45;;;11.10;77.50;;;;;;4951063;29;20078;-84
2022/09/13 04:49:00;;;;;;;16.95;11.60;;;11.00;77.60;;;;;;4955778;28;20032;-84
2022/09/13 04:51:26;;;;;;;15.82;11.75;;;10.90;78.10;;;;;;4957515;28;20031;-87
2022/09/13 04:53:54;;;;;;;15.10;11.88;;;10.80;78.50;;;;;;4956764;29;20019;-84
2022/09/13 04:56:22;;;;;;;13.85;10.20;;;10.80;78.70;;;;;;4957184;28;20472;-84
2022/09/13 04:58:49;;;;;;;;;;;10.60;79.10;;;;;;4944745;29;20031;-84
2022/09/13 05:01:16;;;;;;;18.42;11.52;;;10.50;79.00;;;;;;4958403;28;20283;-85
2022/09/13 05:03:41;;;;;;;17.98;12.02;;;10.50;80.40;;;;;;4975243;28;20031;-84
2022/09/13 05:06:12;;;;;;;18.20;10.48;;;10.60;80.00;;;;;;4960095;28;20160;-86
2022/09/13 05:08:38;;;;;;;12.35;11.05;;;10.70;79.50;;;;;;4956548;28;20376;-85
2022/09/13 05:11:05;;;;;;;13.40;11.02;;;10.60;79.40;;;;;;4956057;28;20024;-85
2022/09/13 05:13:31;;;;;;;15.32;12.15;;;10.60;79.60;;;;;;4957226;28;20034;-85
2022/09/13 05:16:00;;;;;;;17.77;11.60;;;10.70;79.80;;;;;;4957087;28;20070;-86
2022/09/13 05:18:26;;;;;;;;;;;10.70;79.50;;;;;;4961623;28;20262;-84
2022/09/13 05:20:56;;;;;;;18.23;10.73;;;10.80;79.00;;;;;;4972394;28;19910;-83
2022/09/13 05:23:23;;;;;;;18.77;11.27;;;10.80;79.30;;;;;;4957462;28;20285;-83
2022/09/13 05:25:53;;;;;;;13.93;11.35;;;10.90;79.20;;;;;;4958946;28;20066;-84
2022/09/13 05:28:20;;;;;;;20.10;13.07;;;11.00;79.20;;;;;;4962885;28;20023;-84
2022/09/13 05:31:00;;;;;;;16.98;12.07;;;11.10;79.20;;;;;;4963744;28;20015;-82
2022/09/13 05:33:28;;;;;;;19.70;11.50;;;11.10;78.70;;;;;;4956561;28;20093;-84
2022/09/13 05:35:54;;;;;;;20.83;11.75;;;11.20;79.00;;;;;;4956283;28;20015;-85
2022/09/13 05:38:23;;;;;;;18.92;11.60;;;11.20;78.70;;;;;;4956499;28;20023;-82
2022/09/13 05:41:00;;;;;;;17.63;11.73;;;11.30;78.40;;;;;;4954349;29;20019;-84
2022/09/13 05:43:28;;;;;;;29.87;13.97;;;11.40;78.30;;;;;;4960316;28;20035;-84
2022/09/13 05:46:05;;;;;;;20.42;11.05;;;11.50;78.20;;;;;;4954487;28;20020;-84
2022/09/13 05:48:32;;;;;;;25.83;10.82;;;11.60;78.00;;;;;;4955645;28;20062;-84
2022/09/13 05:51:17;;;;;;;24.05;11.82;;;11.70;77.70;;;;;;4955977;29;20023;-83
2022/09/13 05:53:45;;;;;;;21.83;12.23;;;11.80;77.10;;;;;;4954480;28;20031;-82
2022/09/13 05:56:14;;;;;;;20.27;11.15;;;11.80;76.80;;;;;;4952280;28;20042;-83
2022/09/13 05:58:46;;;;;;;19.55;11.55;;;11.70;76.30;;;;;;4956953;28;20114;-83
2022/09/13 06:01:14;;;;;;;16.52;10.95;;;11.60;76.50;;;;;;4958549;28;20034;-83
2022/09/13 06:03:40;;;;;;;18.33;10.93;;;11.70;76.20;;;;;;4965163;29;20401;-83
2022/09/13 06:06:07;;;;;;;15.93;10.95;;;11.70;76.40;;;;;;4962447;29;20019;-84
2022/09/13 06:08:34;;;;;;;24.58;12.75;;;11.70;76.50;;;;;;4967426;28;20159;-85
2022/09/13 06:11:08;;;;;;;20.30;10.05;;;11.70;76.40;;;;;;4957845;28;20026;-84
2022/09/13 06:13:35;;;;;;;20.98;11.82;;;11.70;76.10;;;;;;4955370;28;20027;-85
2022/09/13 06:16:03;;;;;;;22.85;13.13;;;11.70;76.40;;;;;;4955642;28;20027;-85
2022/09/13 06:18:29;;;;;;;18.20;11.45;;;11.70;76.40;;;;;;4955920;28;20366;-85
2022/09/13 06:21:06;;;;;;;20.58;9.68;;;11.70;76.50;;;;;;4955133;29;20035;-84
2022/09/13 06:23:31;;;;;;;15.57;10.40;;;11.60;76.50;;;;;;4954237;29;20031;-84
2022/09/13 06:26:06;;;;;;;20.10;11.57;;;11.60;76.80;;;;;;4956070;28;20078;-83
2022/09/13 06:28:32;;;;;;;18.55;11.07;;;11.70;76.60;;;;;;4953795;28;20027;-85
2022/09/13 06:31:06;;;;;;;27.17;11.88;;;11.80;76.50;;;;;;4955665;28;20034;-87
2022/09/13 06:33:33;;;;;;;16.67;10.30;;;11.80;76.50;;;;;;4954203;28;20386;-85
2022/09/13 06:36:03;;;;;;;18.52;10.57;;;11.90;76.10;;;;;;4955079;29;20035;-90
2022/09/13 06:38:29;;;;;;;13.85;9.35;;;12.00;75.80;;;;;;4972283;28;20053;-84
2022/09/13 06:41:03;;;;;;;17.17;9.65;;;11.90;75.30;;;;;;4971862;28;20066;-83
2022/09/13 06:43:29;;;;;;;18.48;11.38;;;11.90;75.60;;;;;;4951657;29;20070;-82
2022/09/13 06:46:03;;;;;;;14.65;9.88;;;11.90;75.50;;;;;;4956288;28;20051;-82
2022/09/13 06:48:34;;;;;;;18.35;11.40;;;11.80;75.40;;;;;;4960233;28;20134;-86
2022/09/13 06:51:02;;;;;;;23.42;11.32;;;11.90;75.80;;;;;;4957471;29;20106;-87
2022/09/13 06:53:28;;;;;;;32.67;12.80;;;11.90;75.50;;;;;;4971375;28;20023;-85
2022/09/13 06:56:03;;;;;;;21.98;11.40;;;11.90;75.50;;;;;;4972603;28;20034;-86
2022/09/13 06:58:30;;;;;;;22.33;12.40;;;12.00;75.90;;;;;;4972698;28;20449;-86
2022/09/13 07:01:09;;;;;;;18.50;10.93;;;12.10;75.60;;;;;;4971062;28;20082;-85
2022/09/13 07:03:39;;;;;;;18.80;11.95;;;12.20;75.00;;;;;;4956377;28;20031;-87
2022/09/13 07:06:14;;;;;;;23.58;13.43;;;12.20;75.20;;;;;;4958146;28;20070;-87
2022/09/13 07:08:41;;;;;;;26.75;12.45;;;12.30;74.90;;;;;;4959946;28;20091;-84
2022/09/13 07:11:08;;;;;;;11.30;9.50;;;12.40;74.60;;;;;;4961957;28;20484;-87
2022/09/13 07:13:35;;;;;;;16.05;10.93;;;12.40;73.90;;;;;;4954715;28;20221;-86
2022/09/13 07:16:06;;;;;;;17.55;10.85;;;12.30;74.10;;;;;;4964651;28;20020;-84
2022/09/13 07:18:32;;;;;;;12.27;9.00;;;12.30;73.70;;;;;;4963902;29;20362;-88
2022/09/13 07:21:09;;;;;;;18.83;9.45;;;12.40;73.40;;;;;;4954398;29;20020;-86
2022/09/13 07:23:37;;;;;;;14.20;10.10;;;12.50;73.70;;;;;;4954940;28;20047;-85
2022/09/13 07:26:05;;;;;;;18.25;9.70;;;12.70;73.00;;;;;;4955400;28;20052;-85
2022/09/13 07:28:39;;;;;;;20.48;10.00;;;12.90;72.30;;;;;;4957364;29;20024;-86
2022/09/13 07:31:12;;;;;;;8.70;7.43;;;13.10;72.00;;;;;;4967128;28;20027;-85
2022/09/13 07:33:40;;;;;;;11.88;9.00;;;13.20;70.20;;;;;;4969299;28;20023;-84
2022/09/13 07:36:06;;;;;;;;;;;13.30;70.10;;;;;;4962630;28;20019;-86
2022/09/13 07:38:35;;;;;;;12.00;8.27;;;13.50;69.90;;;;;;4963568;28;20475;-83
2022/09/13 07:41:05;;;;;;;17.02;9.68;;;13.70;69.20;;;;;;4974567;28;20028;-86
2022/09/13 07:43:33;;;;;;;16.45;9.13;;;14.00;68.80;;;;;;4975076;28;20035;-84
2022/09/13 07:46:05;;;;;;;13.55;8.45;;;14.50;67.60;;;;;;4967299;28;20544;-84
2022/09/13 07:48:34;;;;;;;21.13;10.07;;;15.20;66.20;;;;;;4962016;29;20134;-86
2022/09/13 07:51:05;;;;;;;19.70;10.60;;;16.40;63.10;;;;;;4960241;29;20027;-85
2022/09/13 07:53:32;;;;;;;20.48;9.63;;;17.40;60.90;;;;;;4958951;28;20162;-85
2022/09/13 07:56:02;;;;;;;11.63;8.68;;;;;;;;;;4960561;28;20024;-84
2022/09/13 07:58:28;;;;;;;26.60;11.45;;;17.50;56.50;;;;;;4971228;28;20031;-85
2022/09/13 08:00:58;;;;;;;16.02;9.48;;;17.10;58.10;;;;;;4993023;28;20034;-84
2022/09/13 08:03:24;;;;;;;12.75;9.43;;;17.20;58.80;;;;;;4985384;28;20039;-85
2022/09/13 08:05:52;;;;;;;17.60;9.20;;;17.50;58.20;;;;;;4964419;29;20370;-88
2022/09/13 08:08:19;;;;;;;23.70;9.25;;;18.30;57.40;;;;;;4958891;28;20035;-84
2022/09/13 08:10:44;;;;;;;15.73;8.55;;;19.40;55.20;;;;;;4962457;28;20046;-83
2022/09/13 08:13:10;;;;;;;16.85;8.75;;;20.30;52.70;;;;;;4971853;28;20501;-85
2022/09/13 08:15:36;;;;;;;11.60;8.40;;;;;;;;;;4963380;28;20031;-86
2022/09/13 08:18:05;;;;;;;20.23;8.88;;;21.30;50.60;;;;;;4958392;28;20121;-87
2022/09/13 08:20:34;;;;;;;11.63;7.18;;;22.80;47.20;;;;;;4956873;29;20092;-87
2022/09/13 08:23:00;;;;;;;8.57;6.43;;;22.90;45.00;;;;;;4956353;28;20094;-86
2022/09/13 08:25:26;;;;;;;9.77;6.53;;;22.20;45.30;;;;;;4957676;28;20031;-85
2022/09/13 08:27:52;;;;;;;9.27;6.33;;;22.00;46.20;;;;;;4956461;28;20114;-84
2022/09/13 08:30:18;;;;;;;9.95;5.55;;;22.20;45.80;;;;;;4959368;28;20438;-85
2022/09/13 08:32:44;;;;;;;11.07;6.72;;;22.00;45.50;;;;;;4963031;28;20425;-84
2022/09/13 08:35:09;;;;;;;13.73;6.35;;;22.60;45.40;;;;;;4958077;28;20065;-84
2022/09/13 08:37:35;;;;;;;12.48;6.22;;;22.90;44.00;;;;;;4958771;28;20069;-85
2022/09/13 08:40:05;;;;;;;7.70;6.03;;;22.70;44.50;;;;;;4958018;29;20078;-85
2022/09/13 08:43:24;;;;;;;13.13;6.50;;;22.70;44.40;;;;;;4957093;28;20066;-86
2022/09/13 08:45:54;;;;;;;13.20;7.93;;;;;;;;;;4974349;28;20480;-85
2022/09/13 08:48:30;;;;;;;14.30;6.90;;;23.30;43.30;;;;;;4959368;28;20075;-84
2022/09/13 08:51:11;;;;;;;12.88;6.10;;;23.30;43.30;;;;;;4957659;28;20019;-85
2022/09/13 08:53:46;;;;;;;11.90;5.70;;;23.20;43.40;;;;;;4964470;28;20522;-84
2022/09/13 08:56:33;;;;;;;9.93;5.22;;;24.10;42.40;;;;;;4959604;28;20015;-84
2022/09/13 08:59:24;;;;;;;13.45;7.63;;;24.40;40.90;;;;;;4968770;28;20031;-84
2022/09/13 09:02:17;;;;;;;11.65;4.35;;;24.70;41.20;;;;;;4962162;28;20429;-85
2022/09/13 09:05:15;;;;;;;8.55;4.65;;;24.30;39.80;;;;;;4957737;29;20090;-85
2022/09/13 09:08:08;;;;;;;13.25;5.22;;;22.80;41.80;;;;;;4961986;28;20043;-85
2022/09/13 09:10:45;;;;;;;14.65;5.25;;;22.00;42.90;;;;;;4955866;28;20062;-84
2022/09/13 09:13:28;;;;;;;15.80;5.13;;;21.60;44.00;;;;;;4957870;29;20681;-86
2022/09/13 09:15:59;;;;;;;10.43;4.10;;;21.30;44.50;;;;;;4948586;29;20035;-84
2022/09/13 09:18:32;;;;;;;10.50;4.15;;;20.80;44.50;;;;;;4957906;29;20122;-84
2022/09/13 09:21:02;;;;;;;5.50;3.72;;;20.20;45.70;;;;;;4956124;29;20103;-84
2022/09/13 09:23:44;;;;;;;12.77;4.20;;;19.80;46.20;;;;;;4956821;28;20027;-82
2022/09/13 09:26:27;;;;;;;14.10;4.72;;;19.60;46.90;;;;;;4946286;29;20082;-84
2022/09/13 09:29:12;;;;;;;8.77;3.78;;;19.30;47.50;;;;;;4957757;29;20138;-83
2022/09/13 09:31:50;;;;;;;15.40;4.38;;;18.90;48.00;;;;;;4958074;29;20023;-85
2022/09/13 09:34:41;;;;;;;7.78;4.07;;;18.60;48.80;;;;;;4962210;29;20079;-85
2022/09/13 09:37:24;;;;;;;10.48;4.82;;;;;;;;;;4968154;28;20023;-83
2022/09/13 09:39:53;;;;;;;3.67;2.75;;;18.30;49.90;;;;;;4947893;29;20034;-84
2022/09/13 09:42:25;;;;;;;8.65;3.47;;;17.70;51.40;;;;;;4957342;28;20123;-85
2022/09/13 09:45:04;;;;;;;9.43;3.92;;;17.60;52.10;;;;;;4964386;29;20027;-85
2022/09/13 09:47:43;;;;;;;14.35;4.22;;;17.30;52.50;;;;;;4964880;29;20031;-85
2022/09/13 09:50:33;;;;;;;10.23;4.57;;;17.10;53.20;;;;;;4967271;29;20046;-84
2022/09/13 09:53:02;;;;;;;5.97;3.10;;;16.90;54.00;;;;;;4957238;28;20027;-84
2022/09/13 09:55:30;;;;;;;9.43;4.03;;;16.90;53.80;;;;;;4957853;28;20031;-85
2022/09/13 09:58:05;;;;;;;7.85;3.67;;;16.90;54.20;;;;;;4950130;28;20028;-85
2022/09/13 10:00:34;;;;;;;10.02;4.32;;;;;;;;;;4947423;29;20019;-86
2022/09/13 10:03:15;;;;;;;7.03;3.65;;;16.80;54.50;;;;;;4965639;28;20082;-83
2022/09/13 10:05:42;;;;;;;5.97;3.65;;;16.80;54.80;;;;;;4965099;28;20104;-84
2022/09/13 10:08:28;;;;;;;7.40;3.83;;;16.70;54.30;;;;;;4960907;29;20023;-84
2022/09/13 10:10:58;;;;;;;5.07;2.92;;;16.60;54.80;;;;;;4961324;28;20627;-86
2022/09/13 10:13:24;;;;;;;4.38;2.72;;;16.50;54.40;;;;;;4960187;28;20047;-86
2022/09/13 10:15:54;;;;;;;14.07;3.47;;;16.40;54.00;;;;;;4953691;29;20050;-85
2022/09/13 10:18:22;;;;;;;10.80;3.00;;;16.40;53.90;;;;;;4954123;29;20038;-83
2022/09/13 10:20:59;;;;;;;;;;;16.40;53.60;;;;;;4962155;28;20027;-84
2022/09/13 10:23:26;;;;;;;3.20;2.08;;;16.30;53.20;;;;;;4975995;28;19918;-86
2022/09/13 10:26:06;;;;;;;4.90;1.80;;;16.20;53.60;;;;;;4957106;28;20015;-84
2022/09/13 10:28:54;;;;;;;4.50;2.00;;;16.20;53.60;;;;;;4955916;29;20481;-85
2022/09/13 10:31:26;;;;;;;3.80;1.90;;;16.10;53.80;;;;;;4954440;28;20474;-87
2022/09/13 10:34:01;;;;;;;4.75;2.72;;;16.00;53.80;;;;;;4955559;28;20415;-87
2022/09/13 10:36:36;;;;;;;5.78;2.72;;;16.00;54.30;;;;;;4957061;29;20098;-86
2022/09/13 10:39:11;;;;;;;6.10;2.88;;;16.00;54.60;;;;;;4956474;28;20027;-85
2022/09/13 10:41:43;;;;;;;2.92;2.28;;;15.90;54.40;;;;;;4955112;28;20054;-85
2022/09/13 10:44:29;;;;;;;7.65;3.25;;;15.90;54.60;;;;;;4956727;28;20035;-85
2022/09/13 10:46:56;;;;;;;3.28;2.58;;;15.90;54.60;;;;;;4954062;28;20071;-84
2022/09/13 10:49:55;;;;;;;8.18;2.97;;;15.90;54.70;;;;;;4963942;28;20071;-85
2022/09/13 10:52:41;;;;;;;4.28;2.58;;;15.90;55.00;;;;;;4957218;28;20515;-85
2022/09/13 10:55:19;;;;;;;4.75;2.72;;;15.80;55.20;;;;;;4957229;28;20140;-84
2022/09/13 10:57:46;;;;;;;6.78;2.72;;;15.80;55.70;;;;;;4957516;29;20031;-86
2022/09/13 11:00:16;;;;;;;8.98;2.70;;;15.80;55.50;;;;;;4954881;28;20055;-85
2022/09/13 11:03:04;;;;;;;4.50;2.47;;;15.70;56.00;;;;;;4955655;28;20074;-88
2022/09/13 11:06:02;;;;;;;7.45;3.55;;;15.70;55.90;;;;;;4956007;28;20027;-84
2022/09/13 11:09:26;;;;;;;9.43;3.17;;;15.60;56.40;;;;;;4964096;28;20046;-85
2022/09/13 11:12:14;;;;;;;6.45;3.25;;;15.60;56.50;;;;;;4962300;28;20079;-84
2022/09/13 11:15:00;;;;;;;7.28;3.20;;;15.60;56.60;;;;;;4954816;29;20035;-85
2022/09/13 11:17:50;;;;;;;13.90;2.83;;;15.60;56.50;;;;;;4958156;28;20537;-85
2022/09/13 11:20:33;;;;;;;9.30;3.20;;;15.60;56.10;;;;;;4958034;29;20023;-85
2022/09/13 11:23:24;;;;;;;5.47;2.47;;;15.60;56.20;;;;;;4957696;29;20051;-85
2022/09/13 11:26:18;;;;;;;8.27;3.28;;;15.60;56.10;;;;;;4963650;29;20034;-87
2022/09/13 11:28:50;;;;;;;6.32;2.60;;;15.60;56.20;;;;;;4957395;29;20038;-85
2022/09/13 11:32:03;;;;;;;13.15;2.90;;;15.70;56.20;;;;;;4962882;29;20027;-84
2022/09/13 11:34:50;;;;;;;9.10;2.17;;;15.60;56.40;;;;;;4956421;29;20030;-86
2022/09/13 11:37:42;;;;;;;9.07;3.35;;;15.60;56.50;;;;;;4958820;28;20430;-85
2022/09/13 11:40:27;;;;;;;7.53;2.42;;;15.60;56.80;;;;;;4948707;28;20031;-86
2022/09/13 11:43:14;;;;;;;4.00;2.25;;;15.50;56.40;;;;;;4956582;29;20030;-86
2022/09/13 11:45:54;;;;;;;7.82;2.58;;;15.50;56.70;;;;;;4954866;29;20033;-85
2022/09/13 11:48:31;;;;;;;7.32;2.75;;;15.40;57.00;;;;;;4969376;28;20044;-85
2022/09/13 11:51:19;;;;;;;7.93;3.83;;;15.40;57.30;;;;;;4954002;28;20075;-87
2022/09/13 11:53:44;;;;;;;;;;;15.40;57.10;;;;;;4954659;29;20136;-85
2022/09/13 11:56:18;;;;;;;8.88;3.28;;;15.40;56.90;;;;;;4953571;28;20013;-86
2022/09/13 11:59:02;;;;;;;5.80;2.80;;;15.30;56.90;;;;;;4954731;29;20047;-86
2022/09/13 12:01:42;;;;;;;13.00;3.70;;;15.30;57.30;;;;;;4973747;28;20042;-85
2022/09/13 12:04:42;;;;;;;10.75;3.40;;;15.30;57.50;;;;;;4963839;28;20060;-87
2022/09/13 12:07:25;;;;;;;9.88;4.18;;;15.40;57.60;;;;;;4957861;28;20026;-85
2022/09/13 12:10:03;;;;;;;6.95;3.28;;;15.40;57.50;;;;;;4954244;28;20440;-86
2022/09/13 12:12:33;;;;;;;6.95;2.58;;;15.40;57.10;;;;;;4957554;28;20118;-85
2022/09/13 12:15:30;;;;;;;5.28;2.38;;;15.40;57.40;;;;;;4955793;28;20039;-87
2022/09/13 12:18:22;;;;;;;7.05;3.28;;;15.30;57.20;;;;;;4955676;28;20047;-84
2022/09/13 12:21:13;;;;;;;5.10;2.78;;;15.20;57.60;;;;;;4985537;28;20536;-85
2022/09/13 12:23:52;;;;;;;5.28;2.78;;;15.20;57.40;;;;;;4973102;28;20074;-84
2022/09/13 12:26:29;;;;;;;4.63;2.65;;;15.20;57.60;;;;;;4970738;29;20023;-86
2022/09/13 12:29:00;;;;;;;5.65;3.05;;;15.30;57.60;;;;;;4963980;29;20102;-85
2022/09/13 12:31:28;;;;;;;8.85;3.20;;;15.30;57.30;;;;;;4973393;28;20039;-86
2022/09/13 12:33:55;;;;;;;10.68;3.63;;;15.30;57.50;;;;;;4970539;28;20027;-84
2022/09/13 12:36:43;;;;;;;6.55;2.75;;;15.30;57.50;;;;;;4972551;29;20092;-85
2022/09/13 12:39:31;;;;;;;4.60;2.30;;;15.30;57.20;;;;;;4974665;29;20027;-85
2022/09/13 12:42:24;;;;;;;7.97;2.50;;;15.20;57.30;;;;;;4960338;29;20477;-86
2022/09/13 12:45:02;;;;;;;7.00;2.88;;;15.20;57.40;;;;;;4945743;29;20031;-85
2022/09/13 12:47:46;;;;;;;11.65;2.95;;;15.20;57.80;;;;;;4957979;29;20047;-86
2022/09/13 12:50:34;;;;;;;10.93;3.35;;;15.30;57.20;;;;;;4958655;28;20020;-84
2022/09/13 12:53:28;;;;;;;7.78;2.83;;;15.20;57.70;;;;;;4958459;29;20457;-85
2022/09/13 12:56:12;;;;;;;6.68;2.92;;;15.20;57.10;;;;;;4977258;28;20089;-85
2022/09/13 12:59:01;;;;;;;7.18;2.60;;;15.20;57.00;;;;;;4976849;28;20079;-86
2022/09/13 13:01:32;;;;;;;5.55;3.10;;;15.30;56.80;;;;;;4957770;28;20038;-84
2022/09/13 13:04:02;;;;;;;9.73;2.72;;;15.20;56.80;;;;;;4964765;28;20034;-85
2022/09/13 13:07:00;;;;;;;6.43;2.13;;;15.20;56.50;;;;;;4954759;29;20055;-85
2022/09/13 13:09:43;;;;;;;4.10;2.25;;;15.20;56.90;;;;;;4950277;29;20039;-86
2022/09/13 13:12:28;;;;;;;4.95;2.47;;;15.20;56.50;;;;;;4957014;28;20449;-86
2022/09/13 13:14:55;;;;;;;15.50;3.50;;;15.20;56.50;;;;;;4957228;29;20118;-85
2022/09/13 13:17:36;;;;;;;5.35;2.70;;;15.20;56.90;;;;;;4960041;28;20019;-85
2022/09/13 13:20:40;;;;;;;6.85;2.45;;;15.10;56.70;;;;;;4957311;29;20042;-85